Time;durP1;ratioP1;P1;durP2;ratioP2;P2;SDS_P1;SDS_P2;PMS_P1;PMS_P2;Temp;Humidity;BMP_temperature;BMP_pressure;BME280_temperature;BME280_humidity;BME280_pressure;Samples;Min_cycle;Max_cycle;Signal;HPM_P1;HPM_P2
2022/12/27 00:01:51;;;;;;;12.15;6.03;;;;;;;;;;4905260;29;20559;-66
2022/12/27 00:04:18;;;;;;;14.15;6.15;;;;;;;;;;4905475;29;20024;-64
2022/12/27 00:06:44;;;;;;;12.63;5.35;;;;;;;;;;4904069;29;20449;-64
2022/12/27 00:09:10;;;;;;;11.85;5.43;;;;;;;;;;4920618;28;20062;-65
2022/12/27 00:11:36;;;;;;;11.75;5.72;;;;;;;;;;4919674;28;20066;-64
2022/12/27 00:14:04;;;;;;;11.40;5.18;;;;;;;;;;4902609;29;20043;-66
2022/12/27 00:16:33;;;;;;;11.20;4.45;;;;;;;;;;4908740;28;20123;-65
2022/12/27 00:19:00;;;;;;;10.95;4.90;;;;;;;;;;4904682;29;20692;-63
2022/12/27 00:21:26;;;;;;;12.98;5.15;;;;;;;;;;4908545;29;20259;-64
2022/12/27 00:23:54;;;;;;;11.68;5.25;;;;;;;;;;4911787;29;20173;-65
2022/12/27 00:26:22;;;;;;;10.07;4.40;;;;;;;;;;4911228;29;20467;-64
2022/12/27 00:28:48;;;;;;;11.43;4.35;;;;;;;;;;4917759;28;20461;-64
2022/12/27 00:31:15;;;;;;;12.70;4.15;;;;;;;;;;4905689;29;20039;-64
2022/12/27 00:33:41;;;;;;;;;;;;;;;;;;4906121;29;20035;-64
2022/12/27 00:36:08;;;;;;;9.98;4.20;;;;;;;;;;4906977;29;19914;-64
2022/12/27 00:38:35;;;;;;;11.52;4.63;;;;;;;;;;4908366;29;20447;-64
2022/12/27 00:41:01;;;;;;;;;;;;;;;;;;4919086;28;20047;-64
2022/12/27 00:43:27;;;;;;;12.63;6.28;;;;;;;;;;4908485;29;20332;-64
2022/12/27 00:45:53;;;;;;;11.85;5.50;;;;;;;;;;4905274;28;20348;-64
2022/12/27 00:48:20;;;;;;;11.25;4.60;;;;;;;;;;4910283;29;20312;-65
2022/12/27 00:50:46;;;;;;;;;;;;;;;;;;4905225;28;20129;-64
2022/12/27 00:53:12;;;;;;;9.85;4.40;;;;;;;;;;4908892;29;20471;-66
2022/12/27 00:55:41;;;;;;;10.50;4.20;;;;;;;;;;4906092;29;20166;-66
2022/12/27 00:58:07;;;;;;;12.73;4.53;;;;;;;;;;4904369;29;20308;-65
2022/12/27 01:00:34;;;;;;;13.05;4.38;;;;;;;;;;4908005;29;20291;-64
2022/12/27 01:03:00;;;;;;;11.68;4.28;;;;;;;;;;4919034;28;20039;-64
2022/12/27 01:05:26;;;;;;;9.13;3.70;;;;;;;;;;4922221;28;20024;-65
2022/12/27 01:07:52;;;;;;;10.68;3.50;;;;;;;;;;4903310;29;20051;-64
2022/12/27 01:10:18;;;;;;;10.27;3.70;;;;;;;;;;4920770;28;20461;-64
2022/12/27 01:12:44;;;;;;;9.38;3.10;;;;;;;;;;4916956;28;20132;-64
2022/12/27 01:15:11;;;;;;;9.38;3.60;;;;;;;;;;4906057;29;20035;-64
2022/12/27 01:17:37;;;;;;;10.90;3.72;;;;;;;;;;4905508;29;20039;-65
2022/12/27 01:20:03;;;;;;;9.48;4.00;;;;;;;;;;4903820;29;20032;-65
2022/12/27 01:22:30;;;;;;;10.30;3.78;;;;;;;;;;4904501;29;20313;-65
2022/12/27 01:24:56;;;;;;;10.45;3.65;;;;;;;;;;4902768;29;20473;-65
2022/12/27 01:27:22;;;;;;;12.32;4.00;;;;;;;;;;4919632;28;20051;-65
2022/12/27 01:29:48;;;;;;;10.32;3.55;;;;;;;;;;4918774;28;20150;-65
2022/12/27 01:32:14;;;;;;;11.25;3.50;;;;;;;;;;4908355;29;20431;-65
2022/12/27 01:34:40;;;;;;;11.82;3.42;;;;;;;;;;4913082;28;20507;-64
2022/12/27 01:37:07;;;;;;;8.52;3.25;;;;;;;;;;4904309;29;20042;-65
2022/12/27 01:39:33;;;;;;;8.48;3.25;;;;;;;;;;4907849;29;20150;-64
2022/12/27 01:44:48;;;;;;;8.60;3.15;;;;;;;;;;4903256;29;20051;-66
2022/12/27 01:47:33;;;;;;;10.65;3.25;;;;;;;;;;4909031;28;20063;-63
2022/12/27 01:50:05;;;;;;;8.88;3.33;;;;;;;;;;4917382;28;20040;-63
2022/12/27 01:52:34;;;;;;;7.63;2.50;;;;;;;;;;4904902;29;20039;-63
2022/12/27 01:55:05;;;;;;;8.27;2.72;;;;;;;;;;4903007;29;20034;-64
2022/12/27 01:57:31;;;;;;;8.32;2.70;;;;;;;;;;4907438;29;20132;-65
2022/12/27 01:59:57;;;;;;;9.20;2.53;;;;;;;;;;4917405;28;20742;-66
2022/12/27 02:02:23;;;;;;;9.18;3.10;;;;;;;;;;4904273;29;20024;-63
2022/12/27 02:04:49;;;;;;;7.50;2.92;;;;;;;;;;4916109;28;20038;-63
2022/12/27 02:07:15;;;;;;;7.90;2.70;;;;;;;;;;4905441;28;20024;-63
2022/12/27 02:09:44;;;;;;;9.88;3.28;;;;;;;;;;4903800;29;20031;-65
2022/12/27 02:12:11;;;;;;;8.45;3.35;;;;;;;;;;4905821;29;20047;-64
2022/12/27 02:14:42;;;;;;;7.45;2.83;;;;;;;;;;4903913;29;20109;-64
2022/12/27 02:17:12;;;;;;;8.30;2.80;;;;;;;;;;4908519;29;20545;-64
2022/12/27 02:19:42;;;;;;;10.10;3.40;;;;;;;;;;4903750;29;20478;-64
2022/12/27 02:22:17;;;;;;;11.55;5.22;;;;;;;;;;4906867;29;20557;-63
2022/12/27 02:25:13;;;;;;;13.20;4.88;;;;;;;;;;4903008;29;20329;-64
2022/12/27 02:27:45;;;;;;;10.70;4.55;;;;;;;;;;4903021;29;20358;-63
2022/12/27 02:30:12;;;;;;;12.00;4.93;;;;;;;;;;4903937;29;20039;-66
2022/12/27 02:32:59;;;;;;;9.88;4.40;;;;;;;;;;4890155;29;20570;-66
2022/12/27 02:35:32;;;;;;;9.65;3.90;;;;;;;;;;4903769;29;20118;-64
2022/12/27 02:38:21;;;;;;;11.75;4.28;;;;;;;;;;4904024;29;20056;-64
2022/12/27 02:55:16;;;;;;;8.48;3.30;;;;;;;;;;4907252;29;20046;-64
2022/12/27 02:57:45;;;;;;;8.60;3.10;;;;;;;;;;4890579;29;20056;-64
2022/12/27 03:03:24;;;;;;;7.68;3.15;;;;;;;;;;4897706;29;20066;-64
2022/12/27 03:06:38;;;;;;;12.27;4.30;;;;;;;;;;4905673;29;20035;-65
2022/12/27 03:08:42;;;;;;;10.30;4.47;;;;;;;;;;4909326;29;20766;-65
2022/12/27 03:17:07;;;;;;;11.27;4.30;;;;;;;;;;4882927;29;20987;-65
2022/12/27 03:33:11;;;;;;;10.23;4.50;;;;;;;;;;4906459;29;20121;-64
2022/12/27 03:33:22;;;;;;;12.45;4.88;;;;;;;;;;4906985;29;20039;-63
2022/12/27 03:38:01;;;;;;;16.27;6.35;;;;;;;;;;4904995;29;20043;-63
2022/12/27 03:38:37;;;;;;;11.68;5.93;;;;;;;;;;4910609;28;20498;-64
2022/12/27 03:43:51;;;;;;;12.73;6.63;;;;;;;;;;4906080;29;20035;-64
2022/12/27 03:46:37;;;;;;;;;;;;;;;;;;4904272;29;20072;-64
2022/12/27 03:49:07;;;;;;;12.02;6.63;;;;;;;;;;4905911;29;19922;-64
2022/12/27 03:51:38;;;;;;;12.98;6.88;;;;;;;;;;4907479;29;20501;-64
2022/12/27 03:54:08;;;;;;;12.40;6.47;;;;;;;;;;4904271;29;20569;-64
2022/12/27 03:56:34;;;;;;;11.82;6.53;;;;;;;;;;4907825;29;20394;-63
2022/12/27 03:59:00;;;;;;;14.00;7.10;;;;;;;;;;4918417;28;20048;-64
2022/12/27 04:01:26;;;;;;;15.50;8.52;;;;;;;;;;4906403;29;20099;-64
2022/12/27 04:03:53;;;;;;;16.42;8.13;;;;;;;;;;4905358;29;20023;-64
2022/12/27 04:06:19;;;;;;;15.05;8.25;;;;;;;;;;4908851;29;20047;-64
2022/12/27 04:36:12;;;;;;;11.43;5.90;;;;;;;;;;4907048;29;20195;-66
2022/12/27 04:38:38;;;;;;;10.52;5.43;;;;;;;;;;4907953;29;20046;-64
2022/12/27 04:55:01;;;;;;;12.52;7.03;;;;;;;;;;4905391;29;22259;-65
2022/12/27 04:57:28;;;;;;;13.88;6.43;;;;;;;;;;4903014;29;20043;-65
2022/12/27 05:02:39;;;;;;;12.40;5.72;;;;;;;;;;4907467;29;19917;-64
2022/12/27 05:05:05;;;;;;;;;;;;;;;;;;4906140;29;20574;-64
2022/12/27 05:15:45;;;;;;;12.52;6.20;;;;;;;;;;4902614;29;20042;-63
2022/12/27 05:18:11;;;;;;;12.77;7.07;;;;;;;;;;4905353;29;20036;-65
2022/12/27 05:20:37;;;;;;;12.25;6.63;;;;;;;;;;4905828;28;20416;-65
2022/12/27 05:25:48;;;;;;;13.70;7.10;;;;;;;;;;4901372;29;20078;-65
2022/12/27 05:28:14;;;;;;;12.02;5.90;;;;;;;;;;4906761;29;20464;-65
2022/12/27 05:30:42;;;;;;;11.23;5.07;;;;;;;;;;4906340;29;20430;-65
2022/12/27 05:33:08;;;;;;;11.63;4.80;;;;;;;;;;4905499;29;20038;-65
2022/12/27 05:35:34;;;;;;;;;;;;;;;;;;4905803;29;20433;-65
2022/12/27 05:38:00;;;;;;;12.40;4.55;;;;;;;;;;4903224;29;20685;-64
2022/12/27 05:40:27;;;;;;;15.10;5.20;;;;;;;;;;4905025;29;20116;-65
2022/12/27 05:42:53;;;;;;;11.90;4.65;;;;;;;;;;4903855;29;20394;-65
2022/12/27 05:45:20;;;;;;;14.63;4.60;;;;;;;;;;4907946;29;20257;-64
2022/12/27 05:47:46;;;;;;;15.10;4.50;;;;;;;;;;4903006;29;20486;-65
2022/12/27 05:50:12;;;;;;;14.48;4.07;;;;;;;;;;4921859;28;20035;-64
2022/12/27 05:52:39;;;;;;;13.80;4.85;;;;;;;;;;4906191;29;20043;-65
2022/12/27 05:55:06;;;;;;;14.40;4.85;;;;;;;;;;4906458;29;20494;-63
2022/12/27 05:57:32;;;;;;;16.10;5.20;;;;;;;;;;4905993;29;20039;-63
2022/12/27 05:59:58;;;;;;;14.43;5.15;;;;;;;;;;4903779;29;20067;-63
2022/12/27 06:02:24;;;;;;;19.45;6.30;;;;;;;;;;4906909;29;20430;-63
2022/12/27 06:04:51;;;;;;;29.00;7.10;;;;;;;;;;4905021;29;20172;-63
2022/12/27 06:07:17;;;;;;;23.17;6.28;;;;;;;;;;4908473;28;20042;-64
2022/12/27 06:09:43;;;;;;;22.17;6.13;;;;;;;;;;4921347;28;20910;-65
2022/12/27 06:12:09;;;;;;;15.60;4.90;;;;;;;;;;4909798;29;20500;-65
2022/12/27 06:14:35;;;;;;;13.43;4.75;;;;;;;;;;4911131;29;20034;-63
2022/12/27 06:17:01;;;;;;;15.40;4.63;;;;;;;;;;4924200;28;20020;-64
2022/12/27 06:19:28;;;;;;;14.75;4.00;;;;;;;;;;4912187;28;20160;-64
2022/12/27 06:21:54;;;;;;;11.02;3.85;;;;;;;;;;4905019;29;20035;-64
2022/12/27 06:24:20;;;;;;;12.50;3.80;;;;;;;;;;4912770;29;20424;-64
2022/12/27 06:26:46;;;;;;;10.80;3.35;;;;;;;;;;4905274;29;20492;-64
2022/12/27 06:29:12;;;;;;;10.85;3.53;;;;;;;;;;4926304;28;20402;-65
2022/12/27 06:31:39;;;;;;;11.57;3.38;;;;;;;;;;4910210;29;20042;-65
2022/12/27 06:34:05;;;;;;;8.35;3.30;;;;;;;;;;4907326;29;20035;-67
2022/12/27 06:36:31;;;;;;;10.55;3.70;;;;;;;;;;4920970;28;20121;-64
2022/12/27 06:38:58;;;;;;;10.70;3.70;;;;;;;;;;4920494;28;20558;-64
2022/12/27 06:41:24;;;;;;;11.48;3.92;;;;;;;;;;4908502;29;20038;-63
2022/12/27 06:43:54;;;;;;;9.95;3.63;;;;;;;;;;4907208;29;20043;-66
2022/12/27 06:46:23;;;;;;;9.85;3.38;;;;;;;;;;4921718;28;20426;-64
2022/12/27 06:48:49;;;;;;;10.30;3.55;;;;;;;;;;4905811;29;20043;-63
2022/12/27 06:51:16;;;;;;;13.57;4.15;;;;;;;;;;4906398;29;20046;-64
2022/12/27 06:53:42;;;;;;;14.88;3.40;;;;;;;;;;4920360;28;20543;-64
2022/12/27 06:56:15;;;;;;;12.73;3.40;;;;;;;;;;4908614;29;20114;-64
2022/12/27 06:58:41;;;;;;;8.50;3.47;;;;;;;;;;4920299;28;20082;-64
2022/12/27 07:01:07;;;;;;;;;;;;;;;;;;4910581;29;20549;-63
2022/12/27 07:03:33;;;;;;;11.20;4.22;;;;;;;;;;4911933;29;19910;-63
2022/12/27 07:06:03;;;;;;;16.42;4.22;;;;;;;;;;4906042;29;20885;-64
2022/12/27 07:08:29;;;;;;;11.10;3.85;;;;;;;;;;4927188;28;20039;-63
2022/12/27 07:11:03;;;;;;;9.38;3.45;;;;;;;;;;4904781;29;20620;-64
2022/12/27 07:13:32;;;;;;;14.05;4.00;;;;;;;;;;4911459;29;20093;-63
2022/12/27 07:15:59;;;;;;;13.70;3.97;;;;;;;;;;4906121;29;20032;-64
2022/12/27 07:18:25;;;;;;;10.80;3.85;;;;;;;;;;4906051;29;20248;-63
2022/12/27 07:20:51;;;;;;;10.30;3.80;;;;;;;;;;4904949;29;20418;-64
2022/12/27 07:23:17;;;;;;;13.40;3.80;;;;;;;;;;4907400;29;20174;-63
2022/12/27 07:25:43;;;;;;;10.48;3.58;;;;;;;;;;4903335;29;20434;-64
2022/12/27 07:28:09;;;;;;;9.52;3.47;;;;;;;;;;4890806;29;20047;-64
2022/12/27 07:30:38;;;;;;;11.70;3.60;;;;;;;;;;4888268;29;20066;-64
2022/12/27 07:33:04;;;;;;;12.60;4.18;;;;;;;;;;4887210;29;20285;-64
2022/12/27 07:35:30;;;;;;;8.82;3.47;;;;;;;;;;4888904;29;20063;-64
2022/12/27 07:37:57;;;;;;;9.43;3.60;;;;;;;;;;4886482;29;20166;-63
2022/12/27 07:40:23;;;;;;;13.52;3.83;;;;;;;;;;4890123;29;20032;-63
2022/12/27 07:42:49;;;;;;;13.15;4.10;;;;;;;;;;4885837;29;20040;-63
2022/12/27 07:45:15;;;;;;;11.10;3.85;;;;;;;;;;4887465;29;20803;-63
2022/12/27 07:47:41;;;;;;;;;;;;;;;;;;4883691;29;20099;-63
2022/12/27 07:50:08;;;;;;;10.65;4.07;;;;;;;;;;4888613;29;20568;-65
2022/12/27 07:52:34;;;;;;;14.50;4.30;;;;;;;;;;4889678;29;20208;-64
2022/12/27 07:55:00;;;;;;;12.60;3.40;;;;;;;;;;4886263;29;20064;-64
2022/12/27 07:57:28;;;;;;;9.18;4.05;;;;;;;;;;4886159;29;20484;-64
2022/12/27 07:59:54;;;;;;;12.25;4.03;;;;;;;;;;4882915;29;20049;-64
2022/12/27 08:02:20;;;;;;;16.42;4.20;;;;;;;;;;4885704;29;20107;-64
2022/12/27 08:04:46;;;;;;;15.15;3.88;;;;;;;;;;4888660;29;20031;-64
2022/12/27 08:07:14;;;;;;;13.70;4.75;;;;;;;;;;4889693;29;20032;-64
2022/12/27 08:09:41;;;;;;;12.48;4.38;;;;;;;;;;4885299;29;20471;-64
2022/12/27 08:12:07;;;;;;;10.25;3.83;;;;;;;;;;4889023;29;20661;-64
2022/12/27 08:14:33;;;;;;;11.38;3.13;;;;;;;;;;4886739;29;21191;-64
2022/12/27 08:17:05;;;;;;;8.52;3.00;;;;;;;;;;4884496;29;22171;-64
2022/12/27 08:19:31;;;;;;;7.88;3.00;;;;;;;;;;4902939;29;20916;-64
2022/12/27 08:21:57;;;;;;;13.60;3.28;;;;;;;;;;4888130;29;20576;-64
2022/12/27 08:24:23;;;;;;;7.82;2.90;;;;;;;;;;4888729;29;20031;-64
2022/12/27 08:26:50;;;;;;;8.30;2.60;;;;;;;;;;4892744;29;20300;-64
2022/12/27 08:29:16;;;;;;;13.75;3.45;;;;;;;;;;4905330;29;20035;-63
2022/12/27 08:31:42;;;;;;;26.15;4.80;;;;;;;;;;4904161;29;20895;-64
2022/12/27 08:34:08;;;;;;;22.27;4.47;;;;;;;;;;4907672;29;20118;-64
2022/12/27 08:36:34;;;;;;;13.93;3.67;;;;;;;;;;4909572;29;20043;-64
2022/12/27 08:39:00;;;;;;;14.90;3.78;;;;;;;;;;4903414;29;20637;-64
2022/12/27 08:41:26;;;;;;;;;;;;;;;;;;4904049;29;20044;-64
2022/12/27 08:43:52;;;;;;;15.20;4.07;;;;;;;;;;4902229;29;19914;-64
2022/12/27 08:46:18;;;;;;;14.32;4.50;;;;;;;;;;4906042;29;20043;-64
2022/12/27 08:48:44;;;;;;;;;;;;;;;;;;4903973;29;20050;-64
2022/12/27 08:51:10;;;;;;;17.15;4.20;;;;;;;;;;4905061;29;19915;-64
2022/12/27 08:53:37;;;;;;;;;;;;;;;;;;4907536;29;20039;-64
2022/12/27 08:56:03;;;;;;;15.60;3.83;;;;;;;;;;4901618;29;19918;-64
2022/12/27 08:58:29;;;;;;;14.02;3.75;;;;;;;;;;4906027;29;20503;-65
2022/12/27 09:00:55;;;;;;;;;;;;;;;;;;4904268;29;20114;-64
2022/12/27 09:03:21;;;;;;;11.65;3.88;;;;;;;;;;4907648;29;19921;-65
2022/12/27 09:05:51;;;;;;;14.35;4.78;;;;;;;;;;4903164;29;20047;-65
2022/12/27 09:08:17;;;;;;;12.10;4.65;;;;;;;;;;4907044;29;20024;-65
2022/12/27 09:10:43;;;;;;;16.38;4.82;;;;;;;;;;4917947;28;20045;-65
2022/12/27 09:13:09;;;;;;;15.35;4.88;;;;;;;;;;4907027;29;20027;-64
2022/12/27 09:15:37;;;;;;;19.00;5.32;;;;;;;;;;4905462;29;20045;-64
2022/12/27 09:18:03;;;;;;;14.07;5.70;;;;;;;;;;4905382;29;20477;-64
2022/12/27 09:20:29;;;;;;;18.15;6.40;;;;;;;;;;4907461;29;20122;-64
2022/12/27 09:22:55;;;;;;;17.98;6.20;;;;;;;;;;4903640;29;20032;-66
2022/12/27 09:25:21;;;;;;;16.17;5.90;;;;;;;;;;4906836;29;20028;-65
2022/12/27 09:27:48;;;;;;;19.08;7.35;;;;;;;;;;4901495;29;20059;-65
2022/12/27 09:30:14;;;;;;;17.80;6.82;;;;;;;;;;4906263;29;20032;-65
2022/12/27 09:32:40;;;;;;;22.80;7.60;;;;;;;;;;4905704;29;20446;-65
2022/12/27 09:35:06;;;;;;;18.83;7.10;;;;;;;;;;4903881;29;20390;-65
2022/12/27 09:37:32;;;;;;;15.18;6.30;;;;;;;;;;4905820;29;20066;-65
2022/12/27 09:39:59;;;;;;;15.57;6.28;;;;;;;;;;4901446;29;20039;-65
2022/12/27 09:43:00;;;;;;;15.25;6.63;;;;;;;;;;4905791;29;20117;-65
2022/12/27 09:45:33;;;;;;;14.32;5.97;;;;;;;;;;4904099;29;20043;-65
2022/12/27 09:48:01;;;;;;;12.90;5.65;;;;;;;;;;4898843;29;20051;-65
2022/12/27 09:50:31;;;;;;;13.18;5.75;;;;;;;;;;4902931;29;20590;-66
2022/12/27 09:53:00;;;;;;;12.32;5.80;;;;;;;;;;4880414;29;20039;-65
2022/12/27 09:55:36;;;;;;;13.52;7.38;;;;;;;;;;4885403;29;20035;-65
2022/12/27 09:58:13;;;;;;;16.27;8.80;;;;;;;;;;4900924;29;20619;-65
2022/12/27 10:00:39;;;;;;;23.80;10.15;;;;;;;;;;4902823;29;20059;-65
2022/12/27 10:03:05;;;;;;;22.60;10.90;;;;;;;;;;4903211;29;20031;-64
2022/12/27 10:05:36;;;;;;;20.83;10.55;;;;;;;;;;4903307;29;20063;-65
2022/12/27 10:08:14;;;;;;;27.35;11.65;;;;;;;;;;4896675;29;20136;-66
2022/12/27 10:11:03;;;;;;;20.73;9.75;;;;;;;;;;4903017;29;20035;-65
2022/12/27 10:13:37;;;;;;;22.50;9.32;;;;;;;;;;4895494;29;20079;-64
2022/12/27 10:16:12;;;;;;;20.02;9.70;;;;;;;;;;4898533;29;20059;-64
2022/12/27 10:18:47;;;;;;;24.13;10.65;;;;;;;;;;4902794;29;20055;-64
2022/12/27 10:21:24;;;;;;;20.10;11.23;;;;;;;;;;4918953;28;20430;-64
2022/12/27 10:23:55;;;;;;;26.92;12.98;;;;;;;;;;4900862;29;20038;-64
2022/12/27 10:26:22;;;;;;;22.05;12.38;;;;;;;;;;4905559;29;20102;-64
2022/12/27 10:28:54;;;;;;;21.80;13.48;;;;;;;;;;4903716;29;20043;-64
2022/12/27 10:31:22;;;;;;;26.48;15.43;;;;;;;;;;4905061;28;20359;-64
2022/12/27 10:33:49;;;;;;;28.42;18.75;;;;;;;;;;4902979;29;20518;-64
2022/12/27 10:36:21;;;;;;;30.92;18.20;;;;;;;;;;4903008;29;20204;-64
2022/12/27 10:38:47;;;;;;;23.95;16.10;;;;;;;;;;4902212;29;20032;-64
2022/12/27 10:41:32;;;;;;;26.08;15.85;;;;;;;;;;4904040;29;20463;-65
2022/12/27 10:43:58;;;;;;;29.92;17.75;;;;;;;;;;4903351;29;20039;-65
2022/12/27 10:46:29;;;;;;;27.05;18.15;;;;;;;;;;4903961;29;20035;-64
2022/12/27 10:48:59;;;;;;;28.90;18.33;;;;;;;;;;4901979;29;20288;-67
2022/12/27 10:51:26;;;;;;;26.13;17.88;;;;;;;;;;4906612;29;20190;-66
2022/12/27 10:53:58;;;;;;;26.00;17.63;;;;;;;;;;4920291;28;20336;-64
2022/12/27 10:56:35;;;;;;;25.33;16.10;;;;;;;;;;4924129;28;20031;-66
2022/12/27 10:59:07;;;;;;;25.33;16.38;;;;;;;;;;4906666;29;20283;-67
2022/12/27 11:01:33;;;;;;;25.17;15.80;;;;;;;;;;4908922;29;20043;-66
2022/12/27 11:04:13;;;;;;;21.35;14.55;;;;;;;;;;4905029;29;21924;-67
2022/12/27 11:06:41;;;;;;;19.50;12.63;;;;;;;;;;4906301;29;20344;-64
2022/12/27 11:09:26;;;;;;;21.08;12.77;;;;;;;;;;4910921;29;20023;-64
2022/12/27 11:11:53;;;;;;;19.40;12.02;;;;;;;;;;4919287;28;20162;-64
2022/12/27 11:14:20;;;;;;;19.38;11.02;;;;;;;;;;4912580;29;20039;-64
2022/12/27 11:16:48;;;;;;;16.60;10.48;;;;;;;;;;4905695;29;20039;-64
2022/12/27 11:19:21;;;;;;;18.58;10.70;;;;;;;;;;4907448;29;20107;-64
2022/12/27 11:21:47;;;;;;;18.42;8.52;;;;;;;;;;4907041;29;20801;-66
2022/12/27 11:24:15;;;;;;;16.35;7.10;;;;;;;;;;4921180;28;20783;-65
2022/12/27 11:26:42;;;;;;;17.10;7.40;;;;;;;;;;4906465;29;20502;-65
2022/12/27 11:29:14;;;;;;;15.50;6.95;;;;;;;;;;4906848;29;20040;-66
2022/12/27 11:31:46;;;;;;;16.92;6.05;;;;;;;;;;4906004;29;20036;-65
2022/12/27 11:34:15;;;;;;;13.38;6.88;;;;;;;;;;4904742;29;20032;-65
2022/12/27 11:36:43;;;;;;;12.07;5.07;;;;;;;;;;4906171;29;20043;-65
2022/12/27 11:39:29;;;;;;;13.00;5.47;;;;;;;;;;4909779;29;20031;-65
2022/12/27 11:41:56;;;;;;;14.55;5.72;;;;;;;;;;4907035;29;20624;-65
2022/12/27 11:44:31;;;;;;;13.43;5.05;;;;;;;;;;4907290;29;20779;-65
2022/12/27 11:46:57;;;;;;;;;;;;;;;;;;4904961;29;20497;-65
2022/12/27 11:49:23;;;;;;;;;;;;;;;;;;4908232;29;20366;-63
2022/12/27 11:51:49;;;;;;;;;;;;;;;;;;4906753;29;19989;-65
2022/12/27 11:54:34;;;;;;;9.75;3.58;;;;;;;;;;4906761;29;20451;-67
2022/12/27 11:57:10;;;;;;;13.23;4.47;;;;;;;;;;4905041;29;22346;-64
2022/12/27 11:59:42;;;;;;;11.48;3.85;;;;;;;;;;4920274;28;20039;-65
2022/12/27 12:02:20;;;;;;;8.55;3.30;;;;;;;;;;4905846;29;20027;-64
2022/12/27 12:05:05;;;;;;;10.95;3.78;;;;;;;;;;4905072;29;20397;-67
2022/12/27 12:07:41;;;;;;;10.43;3.60;;;;;;;;;;4905250;29;20121;-64
2022/12/27 12:10:24;;;;;;;11.52;3.80;;;;;;;;;;4906832;29;20602;-65
2022/12/27 12:13:08;;;;;;;10.15;3.75;;;;;;;;;;4903254;29;20030;-65
2022/12/27 12:15:43;;;;;;;10.35;3.70;;;;;;;;;;4906708;29;20217;-65
2022/12/27 12:18:09;;;;;;;;;;;;;;;;;;4906169;29;20451;-65
2022/12/27 12:20:44;;;;;;;10.40;3.42;;;;;;;;;;4923330;28;19922;-65
2022/12/27 12:23:12;;;;;;;9.38;3.95;;;;;;;;;;4922098;28;20070;-65
2022/12/27 12:26:02;;;;;;;11.07;3.70;;;;;;;;;;4903152;29;20024;-65
2022/12/27 12:28:28;;;;;;;10.27;3.60;;;;;;;;;;4898551;29;20471;-65
2022/12/27 12:31:03;;;;;;;10.43;3.40;;;;;;;;;;4900919;29;20047;-65
2022/12/27 12:33:29;;;;;;;;;;;;;;;;;;4907441;29;20692;-65
2022/12/27 12:36:24;;;;;;;9.98;3.42;;;;;;;;;;4901057;29;19921;-65
2022/12/27 12:38:56;;;;;;;13.15;3.70;;;;;;;;;;4902241;29;20043;-65
2022/12/27 12:41:35;;;;;;;9.45;2.60;;;;;;;;;;4915546;28;20039;-64
2022/12/27 12:44:21;;;;;;;9.10;2.63;;;;;;;;;;4901494;29;20466;-65
2022/12/27 12:46:56;;;;;;;10.73;4.10;;;;;;;;;;4900182;29;20067;-65
2022/12/27 12:49:26;;;;;;;10.45;3.67;;;;;;;;;;4906680;29;20134;-65
2022/12/27 12:51:56;;;;;;;9.13;2.92;;;;;;;;;;4900879;29;20031;-65
2022/12/27 12:54:34;;;;;;;11.65;3.97;;;;;;;;;;4903825;28;20549;-65
2022/12/27 12:57:20;;;;;;;12.05;5.50;;;;;;;;;;4913202;28;20036;-65
2022/12/27 13:00:08;;;;;;;12.73;4.90;;;;;;;;;;4899507;29;20512;-65
2022/12/27 13:03:00;;;;;;;13.68;5.57;;;;;;;;;;4903075;29;20079;-65
2022/12/27 13:05:49;;;;;;;15.07;4.88;;;;;;;;;;4904396;29;20039;-65
2022/12/27 13:08:16;;;;;;;14.20;6.30;;;;;;;;;;4857040;29;20075;-67
2022/12/27 13:11:03;;;;;;;12.68;5.93;;;;;;;;;;4870213;29;20049;-65
2022/12/27 13:13:48;;;;;;;11.40;5.15;;;;;;;;;;4875371;29;20306;-65
2022/12/27 13:16:14;;;;;;;14.73;5.30;;;;;;;;;;4873537;29;20039;-65
2022/12/27 13:18:56;;;;;;;14.10;4.88;;;;;;;;;;4861893;29;20567;-65
2022/12/27 13:21:34;;;;;;;13.23;4.45;;;;;;;;;;4873581;29;20040;-65
2022/12/27 13:24:09;;;;;;;11.68;4.80;;;;;;;;;;4870665;29;21105;-66
2022/12/27 13:26:50;;;;;;;12.85;4.90;;;;;;;;;;4868887;29;20320;-66
2022/12/27 13:29:29;;;;;;;11.85;4.50;;;;;;;;;;4875049;29;20410;-67
2022/12/27 13:32:04;;;;;;;10.05;4.60;;;;;;;;;;4869457;29;20252;-65
2022/12/27 13:34:30;;;;;;;13.18;5.10;;;;;;;;;;4871622;29;20036;-65
2022/12/27 13:37:17;;;;;;;13.32;4.95;;;;;;;;;;4869086;29;20391;-65
2022/12/27 13:39:46;;;;;;;15.30;5.45;;;;;;;;;;4872613;29;20206;-65
2022/12/27 13:42:31;;;;;;;12.80;5.65;;;;;;;;;;4871198;29;20626;-65
2022/12/27 13:45:17;;;;;;;13.25;6.20;;;;;;;;;;4878112;29;20122;-65
2022/12/27 13:47:47;;;;;;;14.73;7.85;;;;;;;;;;4895676;29;20412;-66
2022/12/27 13:50:28;;;;;;;11.40;4.20;;;;;;;;;;4903843;29;20522;-66
2022/12/27 13:52:54;;;;;;;16.27;8.82;;;;;;;;;;4900766;29;20047;-66
2022/12/27 13:55:39;;;;;;;11.85;4.82;;;;;;;;;;4902983;29;20066;-67
2022/12/27 13:58:23;;;;;;;11.65;5.00;;;;;;;;;;4900556;28;20119;-65
2022/12/27 14:01:08;;;;;;;11.60;3.40;;;;;;;;;;4900765;29;20043;-65
2022/12/27 14:03:47;;;;;;;9.68;3.80;;;;;;;;;;4907700;28;20035;-65
2022/12/27 14:06:32;;;;;;;12.43;5.45;;;;;;;;;;4902467;29;20028;-67
2022/12/27 14:09:10;;;;;;;11.85;5.22;;;;;;;;;;4900606;29;20122;-64
2022/12/27 14:11:55;;;;;;;11.80;4.93;;;;;;;;;;4918928;28;20597;-65
2022/12/27 14:14:22;;;;;;;12.20;4.78;;;;;;;;;;4904315;29;20035;-65
2022/12/27 14:17:01;;;;;;;10.85;4.20;;;;;;;;;;4901754;29;20036;-65
2022/12/27 14:19:46;;;;;;;9.05;3.47;;;;;;;;;;4901914;29;20577;-65
2022/12/27 14:22:25;;;;;;;11.20;4.22;;;;;;;;;;4918613;28;20114;-65
2022/12/27 14:24:51;;;;;;;12.30;5.80;;;;;;;;;;4913261;28;20390;-65
2022/12/27 14:27:37;;;;;;;11.55;6.03;;;;;;;;;;4903737;29;20054;-65
2022/12/27 14:30:31;;;;;;;11.90;5.70;;;;;;;;;;4903998;29;20602;-65
2022/12/27 14:33:00;;;;;;;16.23;7.45;;;;;;;;;;4904776;29;20043;-65
2022/12/27 14:35:36;;;;;;;15.82;9.15;;;;;;;;;;4905377;29;20497;-65
2022/12/27 14:38:10;;;;;;;17.05;9.23;;;;;;;;;;4903885;28;20094;-65
2022/12/27 14:40:51;;;;;;;14.85;8.57;;;;;;;;;;4907313;29;20150;-65
2022/12/27 14:43:33;;;;;;;14.35;8.45;;;;;;;;;;4908770;29;20027;-67
2022/12/27 14:46:11;;;;;;;17.88;8.40;;;;;;;;;;4903313;29;20172;-66
2022/12/27 14:48:40;;;;;;;12.77;5.97;;;;;;;;;;4906438;29;20094;-66
2022/12/27 14:51:28;;;;;;;15.88;8.23;;;;;;;;;;4906859;29;20038;-66
2022/12/27 14:54:13;;;;;;;27.63;15.95;;;;;;;;;;4903142;29;20043;-66
2022/12/27 14:56:54;;;;;;;27.08;16.17;;;;;;;;;;4907239;29;20032;-66
2022/12/27 14:59:30;;;;;;;16.98;8.60;;;;;;;;;;4905938;29;20118;-66
2022/12/27 15:02:06;;;;;;;16.75;8.27;;;;;;;;;;4901941;29;20032;-66
2022/12/27 15:04:41;;;;;;;29.05;17.15;;;;;;;;;;4904288;29;20114;-67
2022/12/27 15:07:26;;;;;;;20.02;12.10;;;;;;;;;;4903514;29;20039;-67
2022/12/27 15:09:52;;;;;;;27.70;15.40;;;;;;;;;;4903789;29;20106;-67
2022/12/27 15:12:21;;;;;;;20.50;10.88;;;;;;;;;;4907175;29;20431;-65
2022/12/27 15:14:47;;;;;;;15.65;8.15;;;;;;;;;;4915876;28;20059;-67
2022/12/27 15:17:33;;;;;;;24.75;14.70;;;;;;;;;;4920795;28;20035;-67
2022/12/27 15:20:02;;;;;;;11.73;5.28;;;;;;;;;;4903291;29;20032;-67
2022/12/27 15:22:28;;;;;;;13.52;5.50;;;;;;;;;;4905952;29;20039;-67
2022/12/27 15:25:07;;;;;;;27.38;14.45;;;;;;;;;;4903647;29;21475;-66
2022/12/27 15:27:33;;;;;;;15.75;7.28;;;;;;;;;;4905248;29;20316;-66
2022/12/27 15:30:03;;;;;;;16.88;8.13;;;;;;;;;;4902882;29;20044;-66
2022/12/27 15:32:38;;;;;;;17.23;9.23;;;;;;;;;;4903057;29;20164;-66
2022/12/27 15:35:23;;;;;;;22.20;12.63;;;;;;;;;;4900538;29;20034;-66
2022/12/27 15:37:50;;;;;;;19.53;9.33;;;;;;;;;;4917092;28;20302;-65
2022/12/27 15:40:38;;;;;;;17.95;9.02;;;;;;;;;;4904663;29;20452;-66
2022/12/27 15:43:23;;;;;;;14.60;8.50;;;;;;;;;;4902743;29;20028;-65
2022/12/27 15:45:52;;;;;;;20.10;10.02;;;;;;;;;;4903141;29;20501;-65
2022/12/27 15:48:25;;;;;;;19.98;13.20;;;;;;;;;;4919863;28;20453;-66
2022/12/27 15:50:55;;;;;;;21.40;13.25;;;;;;;;;;4902568;29;20390;-66
2022/12/27 15:53:40;;;;;;;18.00;9.68;;;;;;;;;;4920418;28;20167;-66
2022/12/27 15:56:25;;;;;;;15.82;8.40;;;;;;;;;;4906030;28;21127;-66
2022/12/27 15:59:09;;;;;;;16.40;8.68;;;;;;;;;;4902116;29;20036;-65
2022/12/27 16:01:37;;;;;;;20.13;9.40;;;;;;;;;;4905857;29;20471;-65
2022/12/27 16:04:23;;;;;;;18.50;8.82;;;;;;;;;;4915336;28;20028;-65
2022/12/27 16:06:50;;;;;;;18.52;8.35;;;;;;;;;;4915121;28;20035;-65
2022/12/27 16:09:23;;;;;;;15.93;7.50;;;;;;;;;;4919319;28;20062;-65
2022/12/27 16:11:58;;;;;;;15.70;6.95;;;;;;;;;;4900905;29;20035;-65
2022/12/27 16:14:35;;;;;;;26.52;17.77;;;;;;;;;;4918068;28;20028;-66
2022/12/27 16:17:11;;;;;;;34.60;20.98;;;;;;;;;;4901694;29;20434;-65
2022/12/27 16:19:49;;;;;;;35.13;19.63;;;;;;;;;;4905590;29;20050;-65
2022/12/27 16:22:23;;;;;;;31.83;22.30;;;;;;;;;;4919253;28;20612;-65
2022/12/27 16:24:50;;;;;;;30.13;19.02;;;;;;;;;;4903116;29;20031;-67
2022/12/27 16:27:36;;;;;;;30.52;21.27;;;;;;;;;;4916017;28;20123;-65
2022/12/27 16:30:02;;;;;;;30.90;16.55;;;;;;;;;;4901354;29;20864;-65
2022/12/27 16:32:29;;;;;;;24.23;12.75;;;;;;;;;;4905993;29;20035;-65
2022/12/27 16:35:08;;;;;;;18.75;11.27;;;;;;;;;;4901644;29;20549;-65